createdAt,value
2024-01-21T00:02:24.335Z,82.74
2024-01-21T00:06:26.498Z,82.12
2024-01-21T00:10:28.631Z,82.50
2024-01-21T00:14:30.764Z,84.82
2024-01-21T00:18:33.007Z,83.10
2024-01-21T00:22:35.503Z,83.32
2024-01-21T00:26:37.839Z,82.14
2024-01-21T00:30:41.285Z,82.67
2024-01-21T00:34:43.910Z,83.53
2024-01-21T00:38:46.667Z,83.38
2024-01-21T00:42:49.170Z,84.24
2024-01-21T00:46:52.123Z,83.48
2024-01-21T00:50:54.224Z,83.87
2024-01-21T00:54:56.627Z,80.95
2024-01-21T00:58:58.762Z,80.88
2024-01-21T01:03:01.071Z,79.70
2024-01-21T01:07:03.537Z,80.62
2024-01-21T01:11:05.733Z,79.92
2024-01-21T01:15:12.416Z,80.47
2024-01-21T01:19:14.725Z,79.64
2024-01-21T01:23:16.860Z,79.95
2024-01-21T01:27:19.149Z,81.26
2024-01-21T01:31:22.240Z,82.66
2024-01-21T01:35:26.881Z,83.08
2024-01-21T01:39:29.020Z,83.60
2024-01-21T01:43:31.419Z,83.53
2024-01-21T01:47:34.322Z,79.35
2024-01-21T01:51:37.965Z,79.50
2024-01-21T01:55:40.305Z,79.49
2024-01-21T01:59:42.628Z,78.69
2024-01-21T02:03:46.581Z,77.95
2024-01-21T02:07:48.814Z,76.39
2024-01-21T02:11:51.194Z,76.15
2024-01-21T02:15:53.416Z,75.93
2024-01-21T02:19:55.513Z,76.50
2024-01-21T02:23:57.661Z,74.27
2024-01-21T02:27:59.727Z,72.66
2024-01-21T02:32:01.922Z,70.99
2024-01-21T02:36:04.250Z,68.98
2024-01-21T02:40:06.966Z,68.12
2024-01-21T02:44:09.120Z,66.29
2024-01-21T02:48:11.448Z,65.06
2024-01-21T02:52:13.635Z,66.14
2024-01-21T02:56:26.773Z,63.06
2024-01-21T03:00:28.957Z,62.03
2024-01-21T03:04:31.101Z,61.84
2024-01-21T03:08:33.460Z,59.74
2024-01-21T03:12:37.443Z,60.00
2024-01-21T03:16:39.561Z,58.74
2024-01-21T03:20:41.691Z,60.06
2024-01-21T03:24:43.898Z,58.60
2024-01-21T03:28:46.022Z,58.44
2024-01-21T03:32:48.237Z,56.55
2024-01-21T03:36:50.482Z,57.27
2024-01-21T03:40:52.618Z,55.58
2024-01-21T03:44:54.744Z,57.92
2024-01-21T03:48:57.029Z,59.05
2024-01-21T03:53:00.272Z,60.79
2024-01-21T03:57:02.401Z,62.06
2024-01-21T04:01:05.065Z,65.25
2024-01-21T04:05:08.215Z,64.61
2024-01-21T04:09:11.484Z,62.48
2024-01-21T04:13:13.751Z,63.71
2024-01-21T04:17:15.972Z,68.87
2024-01-21T04:21:18.792Z,71.69
2024-01-21T04:25:20.874Z,74.45
2024-01-21T04:29:23.007Z,74.59
2024-01-21T04:33:25.175Z,74.58
2024-01-21T04:37:27.277Z,74.34
2024-01-21T04:41:29.443Z,75.12
2024-01-21T04:45:31.590Z,74.83
2024-01-21T04:49:33.872Z,73.57
2024-01-21T04:53:38.929Z,71.48
2024-01-21T04:57:41.452Z,71.53
2024-01-21T05:01:44.045Z,71.50
2024-01-21T05:05:46.165Z,71.48
2024-01-21T05:09:48.346Z,72.22
2024-01-21T05:13:52.211Z,72.04
2024-01-21T05:17:57.809Z,72.40
2024-01-21T05:21:59.995Z,73.12
2024-01-21T05:26:02.143Z,72.41
2024-01-21T05:30:07.977Z,73.33
2024-01-21T05:34:14.786Z,72.31
2024-01-21T05:38:26.328Z,72.86
2024-01-21T05:42:34.745Z,73.40
2024-01-21T05:46:42.938Z,72.12
2024-01-21T05:50:50.296Z,71.27
2024-01-21T05:54:59.119Z,71.35
2024-01-21T05:59:07.098Z,71.76
2024-01-21T06:03:14.783Z,71.40
2024-01-21T06:07:22.435Z,70.19
2024-01-21T06:11:27.553Z,70.10
2024-01-21T06:15:29.703Z,69.76
2024-01-21T06:19:31.930Z,68.84
2024-01-21T06:23:34.079Z,68.99
2024-01-21T06:27:36.283Z,68.51
2024-01-21T06:31:38.457Z,67.59
2024-01-21T06:35:40.983Z,66.98
2024-01-21T06:39:51.077Z,65.62
2024-01-21T06:43:59.265Z,64.61
2024-01-21T06:48:01.486Z,63.17
2024-01-21T06:52:05.764Z,62.43
2024-01-21T06:56:10.974Z,58.70
2024-01-21T07:00:13.898Z,58.20
2024-01-21T07:04:16.566Z,58.66
2024-01-21T07:08:20.034Z,57.87
2024-01-21T07:12:22.096Z,56.94
2024-01-21T07:16:24.284Z,57.32
2024-01-21T07:20:26.377Z,57.08
2024-01-21T07:24:28.533Z,57.71
2024-01-21T07:28:30.695Z,57.60
2024-01-21T07:32:32.896Z,56.90
2024-01-21T07:36:35.053Z,57.82
2024-01-21T07:40:37.144Z,57.09
2024-01-21T07:44:39.384Z,56.30
2024-01-21T07:48:41.568Z,57.43
2024-01-21T07:52:44.195Z,56.96
2024-01-21T07:56:46.445Z,56.82
2024-01-21T08:00:48.966Z,57.16
2024-01-21T08:04:51.115Z,56.19
2024-01-21T08:08:53.186Z,56.01
2024-01-21T08:12:55.609Z,57.64
2024-01-21T08:16:57.733Z,56.12
2024-01-21T08:20:59.839Z,56.87
2024-01-21T08:25:02.653Z,56.67
2024-01-21T08:29:05.062Z,55.85
2024-01-21T08:33:07.242Z,54.21
2024-01-21T08:37:09.735Z,53.41
2024-01-21T08:41:12.885Z,52.64
2024-01-21T08:45:15.315Z,51.92
2024-01-21T08:49:17.969Z,50.31
2024-01-21T08:53:22.117Z,50.66
2024-01-21T08:57:24.299Z,52.12
2024-01-21T09:01:26.712Z,51.58
2024-01-21T09:05:29.766Z,51.63
2024-01-21T09:09:32.553Z,54.21
2024-01-21T09:13:35.075Z,54.31
2024-01-21T09:17:37.327Z,54.84
2024-01-21T09:21:39.538Z,55.58
2024-01-21T09:25:41.732Z,55.24
2024-01-21T09:29:45.161Z,53.87
2024-01-21T09:33:47.486Z,51.51
2024-01-21T09:37:49.968Z,51.15
2024-01-21T09:41:53.484Z,50.26
2024-01-21T09:45:58.455Z,50.68
2024-01-21T09:50:00.726Z,50.06
2024-01-21T09:54:06.113Z,51.76
2024-01-21T09:58:14.700Z,51.02
2024-01-21T10:02:17.996Z,50.30
2024-01-21T10:06:20.604Z,48.38
2024-01-21T10:10:22.827Z,48.10
2024-01-21T10:14:33.013Z,44.03
2024-01-21T10:18:36.187Z,47.23
2024-01-21T10:22:38.677Z,47.46
2024-01-21T10:26:44.388Z,46.33
2024-01-21T10:30:46.778Z,46.11
2024-01-21T10:34:53.784Z,46.24
2024-01-21T10:38:56.636Z,47.71
2024-01-21T10:43:00.730Z,47.32
2024-01-21T10:47:03.915Z,47.38
2024-01-21T10:51:07.430Z,48.33
2024-01-21T10:55:09.935Z,48.88
2024-01-21T10:59:12.446Z,48.66
2024-01-21T11:03:26.529Z,44.98
2024-01-21T11:07:31.345Z,45.69
2024-01-21T11:11:43.056Z,43.03
2024-01-21T11:15:49.036Z,45.44
2024-01-21T11:19:55.923Z,43.39
2024-01-21T11:24:06.428Z,43.05
2024-01-21T11:28:27.896Z,38.62
2024-01-21T11:32:32.066Z,43.20
2024-01-21T11:36:34.862Z,44.13
2024-01-21T11:40:36.996Z,42.20
2024-01-21T11:44:41.167Z,42.57
2024-01-21T11:48:43.336Z,36.80
2024-01-21T11:52:46.588Z,34.13
2024-01-21T11:56:48.997Z,33.69
2024-01-21T12:00:51.398Z,31.26
2024-01-21T12:04:56.209Z,33.11
2024-01-21T12:09:01.084Z,34.20
2024-01-21T12:13:06.840Z,32.97
2024-01-21T12:17:09.140Z,35.92
2024-01-21T12:21:14.833Z,35.62
2024-01-21T12:25:18.694Z,35.10
2024-01-21T12:29:21.584Z,35.72
2024-01-21T12:33:24.016Z,36.04
2024-01-21T12:37:26.304Z,35.76
2024-01-21T12:41:28.629Z,36.84
2024-01-21T12:45:30.814Z,35.50
2024-01-21T12:49:33.463Z,35.92
2024-01-21T12:53:35.777Z,35.29
2024-01-21T12:57:38.099Z,35.52
2024-01-21T13:01:41.346Z,35.19
2024-01-21T13:05:44.003Z,36.07
2024-01-21T13:09:46.864Z,34.96
2024-01-21T13:13:49.185Z,33.71
2024-01-21T13:17:52.470Z,34.69
2024-01-21T13:21:54.682Z,34.62
2024-01-21T13:25:56.998Z,34.39
2024-01-21T13:30:18.197Z,35.46
2024-01-21T13:34:20.614Z,33.15
2024-01-21T13:38:31.629Z,31.32
2024-01-21T13:42:34.296Z,34.94
2024-01-21T13:46:36.466Z,35.68
2024-01-21T13:50:42.116Z,35.16
2024-01-21T13:54:46.700Z,35.51
2024-01-21T13:58:48.940Z,35.26
2024-01-21T14:02:57.046Z,31.73
2024-01-21T14:06:59.503Z,35.55
2024-01-21T14:11:01.769Z,35.30
2024-01-21T14:15:04.556Z,34.47
2024-01-21T14:19:07.072Z,34.74
2024-01-21T14:23:09.246Z,35.20
2024-01-21T14:27:11.713Z,35.81
2024-01-21T14:31:14.148Z,30.32
2024-01-21T14:35:16.400Z,32.91
2024-01-21T14:39:19.086Z,33.28
2024-01-21T14:43:21.289Z,32.25
2024-01-21T14:47:23.614Z,31.73
2024-01-21T14:51:25.812Z,31.88
2024-01-21T14:55:27.968Z,28.56
2024-01-21T14:59:34.416Z,32.54
2024-01-21T15:03:36.644Z,33.40
2024-01-21T15:07:42.393Z,33.36
2024-01-21T15:11:47.333Z,33.46
2024-01-21T15:15:49.595Z,33.20
2024-01-21T15:19:51.834Z,32.94
2024-01-21T15:23:53.996Z,33.78
2024-01-21T15:27:56.700Z,33.89
2024-01-21T15:31:59.151Z,34.01
2024-01-21T15:36:01.339Z,30.98
2024-01-21T15:40:05.301Z,33.82
2024-01-21T15:44:07.566Z,34.37
2024-01-21T15:48:10.321Z,34.22
2024-01-21T15:52:12.911Z,34.24
2024-01-21T15:56:15.021Z,34.85
2024-01-21T16:00:18.401Z,34.77
2024-01-21T16:04:20.819Z,34.19
2024-01-21T16:08:23.141Z,32.09
2024-01-21T16:12:25.577Z,33.68
2024-01-21T16:16:27.838Z,34.69
2024-01-21T16:20:32.306Z,34.65
2024-01-21T16:24:36.391Z,34.08
2024-01-21T16:28:38.608Z,34.07
2024-01-21T16:32:40.871Z,35.07
2024-01-21T16:36:43.296Z,34.07
2024-01-21T16:40:45.650Z,34.49
2024-01-21T16:44:47.925Z,34.39
2024-01-21T16:48:50.280Z,34.69
2024-01-21T16:52:58.170Z,29.58
2024-01-21T16:57:00.545Z,33.31
2024-01-21T17:01:07.529Z,32.86
2024-01-21T17:05:10.190Z,34.42
2024-01-21T17:09:12.782Z,35.18
2024-01-21T17:13:15.220Z,35.95
2024-01-21T17:17:20.075Z,35.61
2024-01-21T17:21:22.211Z,36.44
2024-01-21T17:25:24.652Z,36.39
2024-01-21T17:29:26.970Z,37.64
2024-01-21T17:33:30.384Z,36.83
2024-01-21T17:37:33.197Z,36.84
2024-01-21T17:41:35.467Z,37.09
2024-01-21T17:45:38.051Z,37.55
2024-01-21T17:49:40.385Z,38.00
2024-01-21T17:53:42.742Z,38.63
2024-01-21T17:57:44.997Z,38.46
2024-01-21T18:01:47.228Z,38.40
2024-01-21T18:05:49.587Z,39.88
2024-01-21T18:09:52.161Z,42.12
2024-01-21T18:13:54.295Z,40.07
2024-01-21T18:17:56.463Z,42.60
2024-01-21T18:21:59.810Z,43.31
2024-01-21T18:26:02.027Z,43.82
2024-01-21T18:30:04.860Z,44.60
2024-01-21T18:34:08.033Z,45.15
2024-01-21T18:38:10.558Z,44.60
2024-01-21T18:42:12.749Z,44.95
2024-01-21T18:46:14.998Z,44.31
2024-01-21T18:50:17.831Z,45.10
2024-01-21T18:54:20.807Z,45.83
2024-01-21T18:58:27.712Z,47.84
2024-01-21T19:02:30.411Z,50.17
2024-01-21T19:06:32.578Z,49.58
2024-01-21T19:10:35.277Z,49.52
2024-01-21T19:14:37.593Z,50.96
2024-01-21T19:18:42.709Z,52.90
2024-01-21T19:22:46.504Z,57.24
2024-01-21T19:26:48.749Z,53.22
2024-01-21T19:30:50.851Z,56.47
2024-01-21T19:34:54.884Z,60.77
2024-01-21T19:38:57.239Z,67.44
2024-01-21T19:42:59.583Z,65.97
2024-01-21T19:47:01.749Z,63.93
2024-01-21T19:51:06.007Z,66.63
2024-01-21T19:55:10.389Z,70.55
2024-01-21T19:59:14.163Z,64.05
2024-01-21T20:03:16.409Z,66.94
2024-01-21T20:07:23.038Z,66.70
2024-01-21T20:11:25.557Z,69.17
2024-01-21T20:15:28.260Z,70.04
2024-01-21T20:19:30.575Z,70.46
2024-01-21T20:23:34.058Z,69.55
2024-01-21T20:27:37.416Z,77.48
2024-01-21T20:31:39.629Z,75.25
2024-01-21T20:35:41.892Z,77.88
2024-01-21T20:39:44.790Z,74.26
2024-01-21T20:43:48.495Z,67.61
2024-01-21T20:47:50.779Z,71.76
2024-01-21T20:51:53.135Z,72.25
2024-01-21T20:55:56.651Z,72.60
2024-01-21T20:59:58.885Z,72.05
2024-01-21T21:04:02.437Z,70.64
2024-01-21T21:08:06.638Z,65.90
2024-01-21T21:12:09.347Z,66.70
2024-01-21T21:16:14.179Z,69.48
2024-01-21T21:20:17.176Z,72.78
2024-01-21T21:24:20.053Z,75.65
2024-01-21T21:28:22.493Z,80.87
2024-01-21T21:32:25.484Z,89.43
2024-01-21T21:36:27.860Z,88.10
2024-01-21T21:40:30.108Z,82.46
2024-01-21T21:44:32.312Z,87.44
2024-01-21T21:48:34.604Z,85.93
2024-01-21T21:52:37.094Z,83.20
2024-01-21T21:56:39.767Z,84.19
2024-01-21T22:00:43.189Z,83.30
2024-01-21T22:04:50.239Z,69.84
2024-01-21T22:08:58.660Z,71.11
2024-01-21T22:13:02.883Z,71.61
2024-01-21T22:17:05.879Z,75.49
2024-01-21T22:21:17.634Z,77.44
2024-01-21T22:25:20.634Z,79.77
2024-01-21T22:29:23.320Z,76.95
2024-01-21T22:33:25.763Z,78.65
2024-01-21T22:37:28.562Z,74.77
2024-01-21T22:41:34.057Z,80.30
2024-01-21T22:45:38.391Z,79.24
2024-01-21T22:49:42.802Z,78.27
2024-01-21T22:53:49.909Z,81.89
2024-01-21T22:57:52.189Z,79.21
2024-01-21T23:01:54.302Z,79.07
2024-01-21T23:05:56.962Z,78.28
2024-01-21T23:09:59.426Z,80.51
2024-01-21T23:14:01.858Z,79.16
2024-01-21T23:18:04.034Z,83.50
2024-01-21T23:22:06.189Z,81.43
2024-01-21T23:26:08.764Z,81.54
2024-01-21T23:30:11.426Z,74.25
2024-01-21T23:34:14.062Z,72.80
2024-01-21T23:38:16.547Z,74.51
2024-01-21T23:42:18.777Z,77.86
2024-01-21T23:46:24.144Z,81.89
2024-01-21T23:50:26.789Z,84.03
2024-01-21T23:54:29.381Z,83.09
2024-01-21T23:58:34.054Z,84.67
